Time;durP1;ratioP1;P1;durP2;ratioP2;P2;SDS_P1;SDS_P2;PMS_P1;PMS_P2;Temp;Humidity;BMP_temperature;BMP_pressure;BME280_temperature;BME280_humidity;BME280_pressure;Samples;Min_cycle;Max_cycle;Signal;HPM_P1;HPM_P2
2022/12/30 08:26:14;;;;;;;;;;;;;;;10.40;71.49;96889.31;4245943;27;10397;-68
2022/12/30 08:28:17;;;;;;;;;;;;;;;10.71;70.81;96890.81;4247706;27;5591;-68
2022/12/30 08:30:19;;;;;;;;;;;;;;;10.94;70.38;96885.28;4246860;27;5387;-68
2022/12/30 08:32:22;;;;;;;;;;;;;;;11.13;70.01;96897.03;4247612;27;7695;-68
2022/12/30 08:34:26;;;;;;;;;;;;;;;11.28;69.77;96889.78;4235022;27;6405;-68
2022/12/30 08:36:29;;;;;;;;;;;;;;;11.41;69.29;96895.13;4236786;27;5792;-68
2022/12/30 08:38:34;;;;;;;;;;;;;;;11.54;69.26;96894.38;4238166;27;5517;-68
2022/12/30 08:40:36;;;;;;;;;;;;;;;11.62;69.06;96891.56;4247362;27;5601;-68
2022/12/30 08:42:40;;;;;;;;;;;;;;;11.69;68.55;96897.72;4243537;27;5606;-68
2022/12/30 08:44:43;;;;;;;;;;;;;;;11.75;68.39;96896.09;4236856;27;5669;-68
2022/12/30 08:46:46;;;;;;;;;;;;;;;11.80;68.34;96891.09;4247426;27;5672;-68
2022/12/30 08:48:49;;;;;;;;;;;;;;;11.83;68.19;96891.50;4242543;27;5575;-69
2022/12/30 08:50:54;;;;;;;;;;;;;;;11.89;68.24;96895.16;4234532;27;5704;-68
2022/12/30 08:53:00;;;;;;;;;;;;;;;11.94;68.37;96887.47;4248153;27;5689;-68
2022/12/30 08:55:03;;;;;;;;;;;;;;;11.98;67.86;96893.97;4239212;27;5804;-69
2022/12/30 08:57:08;;;;;;;;;;;;;;;12.01;67.81;96888.31;4237736;27;5685;-68
2022/12/30 08:59:12;;;;;;;;;;;;;;;12.03;67.56;96891.56;4247688;27;5726;-69
2022/12/30 09:01:20;;;;;;;;;;;;;;;12.07;67.85;96887.50;4244562;27;5520;-68
2022/12/30 09:03:23;;;;;;;;;;;;;;;12.10;67.73;96902.97;4247358;27;5188;-68
2022/12/30 09:05:26;;;;;;;;;;;;;;;12.11;67.17;96899.31;4244678;27;7742;-68
2022/12/30 09:07:29;;;;;;;;;;;;;;;12.13;67.23;96893.84;4246869;27;5598;-69
2022/12/30 09:09:52;;;;;;;;;;;;;;;12.17;67.24;96895.06;4240373;27;5796;-69
2022/12/30 09:11:55;;;;;;;;;;;;;;;12.19;67.15;96891.19;4246981;27;5768;-69
2022/12/30 09:13:58;;;;;;;;;;;;;;;12.22;66.91;96900.56;4246506;27;5751;-68
2022/12/30 09:16:04;;;;;;;;;;;;;;;12.24;66.87;96896.72;4245803;27;5598;-69
2022/12/30 09:18:07;;;;;;;;;;;;;;;12.28;66.74;96893.66;4238814;27;5747;-69
2022/12/30 09:20:10;;;;;;;;;;;;;;;12.30;67.01;96902.22;4234989;27;5766;-69
2022/12/30 09:22:13;;;;;;;;;;;;;;;12.32;66.56;96903.66;4261830;27;5678;-69
2022/12/30 09:24:16;;;;;;;;;;;;;;;12.36;66.45;96907.53;4229252;28;5760;-68
2022/12/30 09:26:21;;;;;;;;;;;;;;;12.39;66.24;96917.75;4226033;27;5528;-68
2022/12/30 09:28:24;;;;;;;;;;;;;;;12.40;66.18;96913.25;4201566;28;5671;-68
2022/12/30 09:30:27;;;;;;;;;;;;;;;12.37;65.86;96913.66;4221541;28;5672;-68
2022/12/30 09:32:31;;;;;;;;;;;;;;;12.35;66.12;96905.09;4226979;28;5609;-68
2022/12/30 09:34:33;;;;;;;;;;;;;;;12.31;66.05;96906.50;4232450;28;5713;-69
2022/12/30 09:36:36;;;;;;;;;;;;;;;12.27;65.88;96899.97;4229362;27;5752;-68
2022/12/30 09:38:40;;;;;;;;;;;;;;;12.27;65.61;96898.13;4226708;27;5633;-68
2022/12/30 09:40:52;;;;;;;;;;;;;;;12.31;65.96;96909.16;4228837;27;5768;-68
2022/12/30 09:45:26;;;;;;;;;;;;;;;12.31;65.29;96902.00;4221983;28;5594;-68
2022/12/30 09:47:33;;;;;;;;;;;;;;;12.33;65.54;96907.09;4235492;27;5730;-68
2022/12/30 09:49:40;;;;;;;;;;;;;;;12.37;65.49;96905.72;4226481;27;5689;-68
2022/12/30 09:51:48;;;;;;;;;;;;;;;12.40;65.08;96903.47;4231470;27;5666;-68
2022/12/30 09:53:54;;;;;;;;;;;;;;;12.43;65.05;96903.06;4222660;27;6992;-68
2022/12/30 09:56:00;;;;;;;;;;;;;;;12.46;64.77;96896.56;4232853;27;5609;-67
2022/12/30 09:58:09;;;;;;;;;;;;;;;12.46;64.68;96901.84;4219093;28;5819;-68
2022/12/30 10:00:17;;;;;;;;;;;;;;;12.44;64.61;96896.72;4220434;28;5612;-68
2022/12/30 10:02:23;;;;;;;;;;;;;;;12.45;64.65;96898.34;4221102;27;5669;-69
2022/12/30 10:04:34;;;;;;;;;;;;;;;12.45;64.41;96901.00;4229661;27;5815;-69
2022/12/30 10:06:39;;;;;;;;;;;;;;;12.47;64.46;96901.66;4238610;27;5762;-68
2022/12/30 10:08:58;;;;;;;;;;;;;;;12.47;64.50;96900.84;4238156;27;5695;-68
2022/12/30 10:11:13;;;;;;;;;;;;;;;12.50;64.51;96905.72;4225487;28;5598;-68
2022/12/30 10:13:23;;;;;;;;;;;;;;;12.51;64.33;96902.06;4234479;28;5601;-68
2022/12/30 10:15:37;;;;;;;;;;;;;;;12.52;64.17;96899.19;4225929;28;5784;-68
2022/12/30 10:17:57;;;;;;;;;;;;;;;12.53;64.12;96886.75;4229559;28;5624;-68
2022/12/30 10:20:15;;;;;;;;;;;;;;;12.53;64.13;96894.69;4228286;27;5661;-69
2022/12/30 10:22:26;;;;;;;;;;;;;;;12.53;63.79;96895.53;4218143;28;5650;-69
2022/12/30 10:24:42;;;;;;;;;;;;;;;12.54;63.94;96894.50;4225914;28;5759;-69
2022/12/30 10:26:47;;;;;;;;;;;;;;;12.51;63.57;96897.56;4228137;27;5685;-68
2022/12/30 10:28:57;;;;;;;;;;;;;;;12.52;63.71;96901.03;4219576;28;5828;-68
2022/12/30 10:31:02;;;;;;;;;;;;;;;12.53;63.72;96902.66;4224878;28;5720;-68
2022/12/30 10:33:08;;;;;;;;;;;;;;;12.53;63.76;96892.06;4223603;28;5697;-68
2022/12/30 10:35:16;;;;;;;;;;;;;;;12.54;63.42;96899.81;4226100;28;5752;-69
2022/12/30 10:37:29;;;;;;;;;;;;;;;12.54;63.40;96889.19;4233736;28;5800;-68
2022/12/30 10:39:34;;;;;;;;;;;;;;;12.54;63.38;96880.41;4229242;27;5654;-68
2022/12/30 10:41:49;;;;;;;;;;;;;;;12.56;63.37;96886.34;4232866;27;5657;-68
2022/12/30 10:44:03;;;;;;;;;;;;;;;12.57;63.64;96893.31;4222771;28;5693;-68
2022/12/30 10:46:29;;;;;;;;;;;;;;;12.55;63.40;96900.63;4223629;27;5751;-68
2022/12/30 10:48:51;;;;;;;;;;;;;;;12.61;63.38;96913.06;4228686;28;5586;-68
2022/12/30 10:50:55;;;;;;;;;;;;;;;12.63;63.23;96912.88;4220885;28;5649;-69
2022/12/30 10:52:58;;;;;;;;;;;;;;;12.64;63.38;96925.13;4223523;27;5736;-69
2022/12/30 10:55:18;;;;;;;;;;;;;;;12.65;63.27;96924.09;4217170;28;5719;-68
2022/12/30 10:57:27;;;;;;;;;;;;;;;12.64;63.10;96925.94;4220852;27;5744;-69
2022/12/30 10:59:31;;;;;;;;;;;;;;;12.66;63.05;96917.75;4233273;27;5803;-68
2022/12/30 11:01:36;;;;;;;;;;;;;;;12.68;63.08;96915.72;4226503;28;5707;-69
2022/12/30 11:03:45;;;;;;;;;;;;;;;12.66;63.05;96897.34;4220803;28;5759;-69
2022/12/30 11:05:48;;;;;;;;;;;;;;;12.66;63.15;96896.53;4227982;27;5167;-69
2022/12/30 11:07:56;;;;;;;;;;;;;;;12.69;63.14;96893.50;4223740;28;7700;-69
2022/12/30 11:10:14;;;;;;;;;;;;;;;12.69;63.24;96902.28;4231793;28;5771;-69
2022/12/30 11:14:57;;;;;;;;;;;;;;;12.70;63.09;96901.25;4230423;28;5617;-65
2022/12/30 11:17:08;;;;;;;;;;;;;;;12.70;63.02;96906.56;4246572;27;5682;-68
2022/12/30 11:19:23;;;;;;;;;;;;;;;12.72;62.77;96904.53;4221336;28;5612;-74
2022/12/30 11:21:28;;;;;;;;;;;;;;;12.75;62.98;96906.75;4223899;27;5880;-67
2022/12/30 11:23:36;;;;;;;;;;;;;;;12.77;62.79;96914.50;4228911;28;5819;-71
2022/12/30 11:25:45;;;;;;;;;;;;;;;12.78;62.74;96916.13;4227376;28;5673;-65
2022/12/30 11:27:50;;;;;;;;;;;;;;;12.77;62.71;96920.63;4225604;27;5594;-64
2022/12/30 11:29:53;;;;;;;;;;;;;;;12.76;62.69;96913.69;4230215;27;5744;-65
2022/12/30 11:31:56;;;;;;;;;;;;;;;12.78;63.04;96916.13;4230627;27;5751;-65
2022/12/30 11:34:01;;;;;;;;;;;;;;;12.76;62.94;96920.84;4232828;27;5605;-64
2022/12/30 11:36:19;;;;;;;;;;;;;;;12.75;62.69;96913.91;4229158;27;5605;-64
2022/12/30 11:38:31;;;;;;;;;;;;;;;12.77;62.75;96923.28;4225672;27;5665;-64
2022/12/30 11:40:37;;;;;;;;;;;;;;;12.75;62.98;96922.66;4224471;27;5594;-64
2022/12/30 11:42:40;;;;;;;;;;;;;;;12.74;62.72;96921.03;4233752;27;5091;-66
2022/12/30 11:44:42;;;;;;;;;;;;;;;12.76;62.82;96918.19;4230528;27;5591;-64
2022/12/30 11:46:50;;;;;;;;;;;;;;;12.78;62.92;96916.13;4223180;27;5665;-64
2022/12/30 11:48:55;;;;;;;;;;;;;;;12.76;62.78;96919.00;4217396;28;5751;-64
2022/12/30 11:51:00;;;;;;;;;;;;;;;12.76;62.70;96911.03;4217901;28;5768;-64
2022/12/30 11:53:03;;;;;;;;;;;;;;;12.77;62.71;96909.19;4233419;27;5587;-64
2022/12/30 11:55:06;;;;;;;;;;;;;;;12.77;62.67;96909.19;4234426;27;5587;-64
2022/12/30 11:57:20;;;;;;;;;;;;;;;12.77;62.71;96909.19;4251582;27;5599;-64
2022/12/30 11:59:26;;;;;;;;;;;;;;;12.75;62.49;96912.06;4246864;27;5586;-64
2022/12/30 12:01:42;;;;;;;;;;;;;;;12.71;62.55;96910.84;4217331;28;5680;-64
2022/12/30 12:03:51;;;;;;;;;;;;;;;12.70;62.70;96909.22;4245524;27;5571;-64
2022/12/30 12:06:05;;;;;;;;;;;;;;;12.75;62.89;96905.94;4251403;27;5579;-64
2022/12/30 12:08:15;;;;;;;;;;;;;;;12.75;62.65;96898.78;4251677;27;5595;-64
2022/12/30 12:10:23;;;;;;;;;;;;;;;12.75;62.55;96892.69;4234225;27;5680;-64
2022/12/30 12:12:33;;;;;;;;;;;;;;;12.74;62.77;96894.50;4229169;27;5688;-64
2022/12/30 12:14:49;;;;;;;;;;;;;;;12.71;62.77;96894.13;4217331;28;5664;-64
2022/12/30 12:16:58;;;;;;;;;;;;;;;12.68;62.89;96884.69;4230168;27;5591;-64
2022/12/30 12:19:13;;;;;;;;;;;;;;;12.67;62.87;96883.06;4251579;27;5582;-64
2022/12/30 12:21:23;;;;;;;;;;;;;;;12.67;62.99;96882.25;4218624;28;5621;-64
2022/12/30 12:23:34;;;;;;;;;;;;;;;12.66;62.82;96881.44;4234329;28;5737;-64
2022/12/30 12:25:41;;;;;;;;;;;;;;;12.65;62.82;96871.03;4234112;28;5673;-64
2022/12/30 12:27:45;;;;;;;;;;;;;;;12.64;63.14;96870.22;4229020;28;5696;-64
2022/12/30 12:29:48;;;;;;;;;;;;;;;12.64;63.12;96874.72;4223080;28;5602;-64
2022/12/30 12:32:18;;;;;;;;;;;;;;;12.64;63.00;96878.19;4225435;28;5594;-64
2022/12/30 12:34:52;;;;;;;;;;;;;;;12.65;62.68;96884.31;4230334;28;5606;-64
2022/12/30 12:37:05;;;;;;;;;;;;;;;12.60;63.06;96869.00;4234219;28;5597;-64
2022/12/30 12:39:11;;;;;;;;;;;;;;;12.57;62.89;96872.09;4217432;28;5620;-64
2022/12/30 12:41:29;;;;;;;;;;;;;;;12.55;63.09;96860.84;4226705;28;5606;-64
2022/12/30 12:43:48;;;;;;;;;;;;;;;12.54;63.21;96864.50;4230530;28;5687;-64
2022/12/30 12:46:18;;;;;;;;;;;;;;;12.56;62.96;96870.41;4217040;28;5597;-64
2022/12/30 12:48:40;;;;;;;;;;;;;;;12.58;63.05;96867.59;4216766;28;5637;-64
2022/12/30 12:50:58;;;;;;;;;;;;;;;12.61;63.28;96856.56;4234364;28;5610;-64
2022/12/30 12:53:12;;;;;;;;;;;;;;;12.62;62.99;96850.25;4234270;28;5744;-64
2022/12/30 12:55:36;;;;;;;;;;;;;;;12.61;63.03;96846.78;4217236;28;5699;-64
2022/12/30 12:57:45;;;;;;;;;;;;;;;12.62;63.18;96848.41;4225450;28;5695;-64
2022/12/30 13:00:07;;;;;;;;;;;;;;;12.62;63.15;96852.91;4213070;28;5626;-64
2022/12/30 13:02:28;;;;;;;;;;;;;;;12.64;63.07;96856.97;4236397;28;5755;-64
2022/12/30 13:04:54;;;;;;;;;;;;;;;12.65;62.98;96863.09;4234111;28;5602;-64
2022/12/30 13:07:04;;;;;;;;;;;;;;;12.63;63.01;96868.59;4234392;27;5657;-64
2022/12/30 13:09:32;;;;;;;;;;;;;;;12.65;63.00;96863.91;4226850;27;5785;-64
2022/12/30 13:11:43;;;;;;;;;;;;;;;12.67;63.29;96876.94;4228208;27;5714;-64
2022/12/30 13:13:52;;;;;;;;;;;;;;;12.67;63.38;96890.22;4232358;28;5601;-64
2022/12/30 13:15:59;;;;;;;;;;;;;;;12.68;63.29;96890.00;4231386;27;5106;-64
2022/12/30 13:18:09;;;;;;;;;;;;;;;12.71;63.12;96889.63;4233231;27;7641;-64
2022/12/30 13:20:17;;;;;;;;;;;;;;;12.73;63.19;96900.03;4234067;28;5613;-64
2022/12/30 13:22:23;;;;;;;;;;;;;;;12.74;63.18;96889.22;4228887;27;5085;-64
2022/12/30 13:24:30;;;;;;;;;;;;;;;12.74;63.03;96893.69;4231794;27;5817;-64
2022/12/30 13:26:34;;;;;;;;;;;;;;;12.74;63.32;96899.00;4228722;28;6294;-64
2022/12/30 13:28:38;;;;;;;;;;;;;;;12.74;63.05;96899.81;4229560;28;5597;-64
2022/12/30 13:30:49;;;;;;;;;;;;;;;12.76;63.34;96896.97;4229841;27;5621;-64
2022/12/30 13:33:03;;;;;;;;;;;;;;;12.76;63.28;96895.13;4233618;27;5789;-64
2022/12/30 13:35:28;;;;;;;;;;;;;;;12.76;63.31;96900.44;4231837;28;5720;-64
2022/12/30 13:37:39;;;;;;;;;;;;;;;12.78;63.20;96900.22;4228004;27;5673;-64
2022/12/30 13:39:46;;;;;;;;;;;;;;;12.79;63.14;96910.63;4229840;27;5695;-64
2022/12/30 13:42:16;;;;;;;;;;;;;;;12.79;63.31;96907.97;4225553;27;5766;-64
2022/12/30 13:44:21;;;;;;;;;;;;;;;12.81;63.28;96913.91;4223774;27;5732;-64
2022/12/30 13:46:26;;;;;;;;;;;;;;;12.82;63.41;96904.94;4227995;28;6433;-64
2022/12/30 13:48:33;;;;;;;;;;;;;;;12.81;63.22;96905.94;4229379;28;5677;-64
2022/12/30 13:50:38;;;;;;;;;;;;;;;12.80;63.61;96893.72;4229504;28;5759;-64
2022/12/30 13:52:45;;;;;;;;;;;;;;;12.78;63.47;96885.13;4225570;27;6469;-64
2022/12/30 13:54:52;;;;;;;;;;;;;;;12.81;63.51;96879.41;4230653;28;5848;-64
2022/12/30 13:56:59;;;;;;;;;;;;;;;12.81;63.73;96882.06;4228646;27;5598;-64
2022/12/30 13:59:02;;;;;;;;;;;;;;;12.83;63.60;96881.88;4230244;28;5606;-65
2022/12/30 14:01:35;;;;;;;;;;;;;;;12.79;63.86;96880.63;4229940;27;5598;-65
2022/12/30 14:03:39;;;;;;;;;;;;;;;12.78;63.64;96890.41;4137649;28;6582;-65
2022/12/30 14:06:01;;;;;;;;;;;;;;;12.79;64.08;96884.09;4134590;28;5841;-62
2022/12/30 14:08:07;;;;;;;;;;;;;;;12.80;63.90;96887.59;4140315;28;5707;-65
2022/12/30 14:10:39;;;;;;;;;;;;;;;12.80;64.11;96888.41;4125973;28;5838;-64
2022/12/30 14:12:42;;;;;;;;;;;;;;;12.81;63.90;96881.25;4141744;28;5704;-65
2022/12/30 14:14:45;;;;;;;;;;;;;;;12.81;64.06;96881.25;4147291;28;5795;-65
2022/12/30 14:16:54;;;;;;;;;;;;;;;12.83;63.95;96879.22;4139888;28;5080;-64
2022/12/30 14:19:01;;;;;;;;;;;;;;;12.83;64.21;96893.28;4146162;28;5870;-65
2022/12/30 14:21:08;;;;;;;;;;;;;;;12.83;64.06;96893.28;4144135;28;5823;-65
2022/12/30 14:23:36;;;;;;;;;;;;;;;12.83;64.09;96906.56;4143638;28;5692;-65
2022/12/30 14:25:40;;;;;;;;;;;;;;;12.85;64.14;96910.84;4148646;28;5697;-65
2022/12/30 14:27:45;;;;;;;;;;;;;;;12.86;64.22;96910.63;4149852;28;5787;-65
2022/12/30 14:30:02;;;;;;;;;;;;;;;12.90;64.44;96906.53;4120742;28;5716;-65
2022/12/30 14:32:07;;;;;;;;;;;;;;;12.90;64.38;96914.50;4141060;28;5874;-65
2022/12/30 14:34:27;;;;;;;;;;;;;;;12.92;64.32;96917.78;4141814;28;5862;-65
2022/12/30 14:36:31;;;;;;;;;;;;;;;12.91;64.16;96910.84;4144527;28;5794;-65
2022/12/30 14:38:44;;;;;;;;;;;;;;;12.89;64.51;96925.31;4144032;28;5712;-63
2022/12/30 14:40:56;;;;;;;;;;;;;;;12.89;64.38;96939.41;4196413;28;6399;-65
2022/12/30 14:43:00;;;;;;;;;;;;;;;12.89;64.63;96944.72;4198880;28;5690;-65
2022/12/30 14:45:07;;;;;;;;;;;;;;;12.89;64.58;96933.28;4197954;28;5719;-65
2022/12/30 14:47:10;;;;;;;;;;;;;;;12.89;64.64;96927.97;4198408;28;5789;-65
2022/12/30 14:49:19;;;;;;;;;;;;;;;12.83;64.71;96935.75;4194783;28;5664;-63
2022/12/30 14:51:22;;;;;;;;;;;;;;;12.82;64.57;96949.22;4193508;28;5758;-72
2022/12/30 14:53:25;;;;;;;;;;;;;;;12.85;64.64;96945.34;4193791;28;5805;-63
2022/12/30 14:55:32;;;;;;;;;;;;;;;12.86;64.92;96945.13;4193447;28;5889;-63
2022/12/30 14:57:36;;;;;;;;;;;;;;;12.86;64.84;96942.47;4194405;28;6890;-63
2022/12/30 14:59:50;;;;;;;;;;;;;;;12.89;64.73;96941.25;4192897;28;5794;-63
2022/12/30 15:02:13;;;;;;;;;;;;;;;12.87;64.74;96940.63;4197165;28;5821;-63
2022/12/30 15:04:17;;;;;;;;;;;;;;;12.89;64.97;96949.19;4194118;28;5686;-63
2022/12/30 15:06:20;;;;;;;;;;;;;;;12.89;64.77;96950.00;4206925;28;5767;-63
2022/12/30 15:08:23;;;;;;;;;;;;;;;12.89;65.10;96950.00;4199698;28;5750;-63
2022/12/30 15:10:36;;;;;;;;;;;;;;;12.89;65.02;96951.84;4199285;28;5951;-63
2022/12/30 15:12:38;;;;;;;;;;;;;;;12.90;65.26;96949.00;4191794;28;5877;-63
2022/12/30 15:14:45;;;;;;;;;;;;;;;12.91;65.30;96950.66;4196496;28;5702;-63
2022/12/30 15:17:06;;;;;;;;;;;;;;;12.91;64.98;96957.78;4197973;28;5798;-63
2022/12/30 15:19:24;;;;;;;;;;;;;;;12.88;64.93;96952.88;4191184;28;5769;-63
2022/12/30 15:21:31;;;;;;;;;;;;;;;12.87;65.34;96956.56;4198945;28;5500;-63
2022/12/30 15:23:33;;;;;;;;;;;;;;;12.87;65.49;96956.56;4203910;28;7727;-63
2022/12/30 15:25:36;;;;;;;;;;;;;;;12.88;65.48;96969.63;4227340;27;5843;-63
2022/12/30 15:27:39;;;;;;;;;;;;;;;12.89;65.42;96962.47;4230893;27;5736;-63
2022/12/30 15:29:41;;;;;;;;;;;;;;;12.91;65.56;96973.69;4224763;28;5783;-63
2022/12/30 15:31:49;;;;;;;;;;;;;;;12.92;65.28;96975.34;4229242;28;5771;-63
2022/12/30 15:33:55;;;;;;;;;;;;;;;12.93;65.35;96988.41;4222780;28;5610;-63
2022/12/30 15:36:00;;;;;;;;;;;;;;;12.93;65.27;96985.75;4232102;27;5766;-63
2022/12/30 15:38:04;;;;;;;;;;;;;;;12.94;65.46;96983.91;4242057;27;5609;-63
2022/12/30 15:40:15;;;;;;;;;;;;;;;12.96;65.48;96997.78;4227221;27;5625;-62
2022/12/30 15:42:25;;;;;;;;;;;;;;;12.97;65.51;96997.59;4226726;27;5795;-63
2022/12/30 15:44:28;;;;;;;;;;;;;;;12.99;65.64;97002.69;4227622;27;5795;-63
2022/12/30 15:46:36;;;;;;;;;;;;;;;12.99;65.67;96987.59;4224302;27;5699;-63
2022/12/30 15:48:41;;;;;;;;;;;;;;;12.99;65.64;96979.63;4228097;28;5739;-62
2022/12/30 15:50:44;;;;;;;;;;;;;;;12.99;65.70;96978.81;4227506;27;5820;-63
2022/12/30 15:52:49;;;;;;;;;;;;;;;12.99;65.77;96987.59;4224529;27;5665;-63
2022/12/30 15:54:55;;;;;;;;;;;;;;;12.99;65.49;96992.06;4230093;27;5606;-63
2022/12/30 15:57:00;;;;;;;;;;;;;;;12.97;65.53;96999.44;4231373;27;5696;-63
2022/12/30 15:59:07;;;;;;;;;;;;;;;12.96;65.80;96997.78;4221467;27;5621;-67
2022/12/30 16:01:14;;;;;;;;;;;;;;;12.98;65.91;96995.75;4220563;27;5797;-68
2022/12/30 16:03:16;;;;;;;;;;;;;;;12.97;65.81;96989.63;4226340;28;5869;-67
2022/12/30 16:05:22;;;;;;;;;;;;;;;12.97;65.78;97010.03;4228759;28;5731;-67
2022/12/30 16:07:27;;;;;;;;;;;;;;;12.95;65.99;97015.56;4221909;27;5681;-67
2022/12/30 16:09:41;;;;;;;;;;;;;;;12.96;65.91;97017.19;4224037;27;5782;-67
2022/12/30 16:11:51;;;;;;;;;;;;;;;13.00;66.11;97014.94;4224438;27;5630;-67
2022/12/30 16:14:18;;;;;;;;;;;;;;;13.02;66.03;97020.84;4222465;27;5638;-67
2022/12/30 16:16:31;;;;;;;;;;;;;;;13.01;65.83;97032.50;4221471;28;5618;-67
2022/12/30 16:18:34;;;;;;;;;;;;;;;13.02;65.96;97034.97;4221250;27;5835;-67
2022/12/30 16:20:54;;;;;;;;;;;;;;;13.01;65.84;97024.53;4221695;27;5587;-67
2022/12/30 16:23:02;;;;;;;;;;;;;;;13.01;66.20;97037.78;4227363;27;5701;-67
2022/12/30 16:25:16;;;;;;;;;;;;;;;13.00;66.16;97031.66;4224343;27;5696;-66
2022/12/30 16:27:20;;;;;;;;;;;;;;;13.01;66.16;97045.75;4230583;27;5601;-66
2022/12/30 16:29:27;;;;;;;;;;;;;;;13.02;66.07;97034.13;4227250;27;5621;-66
2022/12/30 16:31:30;;;;;;;;;;;;;;;13.04;66.15;97037.41;4218421;28;5707;-65
2022/12/30 16:33:33;;;;;;;;;;;;;;;13.04;66.19;97038.22;4230633;27;5587;-66
2022/12/30 16:35:36;;;;;;;;;;;;;;;13.05;66.19;97036.41;4222400;27;6710;-67
2022/12/30 16:37:40;;;;;;;;;;;;;;;13.06;66.04;97043.34;4226137;27;5704;-66
2022/12/30 16:39:54;;;;;;;;;;;;;;;13.06;66.38;97046.00;4225663;27;5693;-66
2022/12/30 16:41:59;;;;;;;;;;;;;;;13.06;66.26;97057.41;4228733;27;5950;-65
2022/12/30 16:44:01;;;;;;;;;;;;;;;13.06;66.41;97049.47;4229934;27;5692;-65
2022/12/30 16:46:06;;;;;;;;;;;;;;;13.07;66.03;97037.81;4233588;27;5598;-65
2022/12/30 16:48:10;;;;;;;;;;;;;;;13.09;66.37;97034.97;4227051;27;5600;-65
2022/12/30 16:50:13;;;;;;;;;;;;;;;13.09;66.38;97029.66;4235798;27;5691;-65
2022/12/30 16:52:20;;;;;;;;;;;;;;;13.09;66.32;97040.25;4226677;27;6271;-65
2022/12/30 16:54:25;;;;;;;;;;;;;;;13.08;66.47;97023.53;4225421;27;5617;-65
2022/12/30 16:56:27;;;;;;;;;;;;;;;13.06;66.56;97025.56;4227549;27;5594;-65
2022/12/30 16:58:31;;;;;;;;;;;;;;;13.08;66.31;97049.25;4222428;28;5820;-66
2022/12/30 17:00:34;;;;;;;;;;;;;;;13.09;66.57;97056.19;4227486;28;5692;-65
2022/12/30 17:02:40;;;;;;;;;;;;;;;13.07;66.35;97056.41;4237775;27;5751;-65
2022/12/30 17:04:42;;;;;;;;;;;;;;;13.11;66.58;97052.31;4231258;28;5832;-66
2022/12/30 17:06:46;;;;;;;;;;;;;;;13.11;66.58;97056.81;4233426;27;5709;-65
2022/12/30 17:08:48;;;;;;;;;;;;;;;13.10;66.50;97071.91;4232400;27;5634;-65
2022/12/30 17:10:55;;;;;;;;;;;;;;;13.10;66.61;97089.69;4237794;27;5743;-65
2022/12/30 17:12:58;;;;;;;;;;;;;;;13.11;66.59;97083.34;4210244;28;5611;-66
2022/12/30 17:15:02;;;;;;;;;;;;;;;13.13;66.66;97078.66;4226920;28;5687;-66
2022/12/30 17:17:05;;;;;;;;;;;;;;;13.13;66.68;97073.34;4230029;27;5606;-66
2022/12/30 17:19:09;;;;;;;;;;;;;;;13.14;66.55;97096.22;4231033;27;5845;-66
2022/12/30 17:21:13;;;;;;;;;;;;;;;13.16;66.74;97088.88;4230119;28;5612;-66
2022/12/30 17:23:26;;;;;;;;;;;;;;;13.16;66.54;97098.69;4226315;27;5598;-66
2022/12/30 17:25:29;;;;;;;;;;;;;;;13.17;66.80;97095.00;4220482;27;5804;-63
2022/12/30 17:27:31;;;;;;;;;;;;;;;13.15;66.66;97100.53;4220992;27;5747;-63
2022/12/30 17:29:34;;;;;;;;;;;;;;;13.17;66.49;97122.38;4221113;28;5700;-63
2022/12/30 17:31:42;;;;;;;;;;;;;;;13.16;66.81;97115.44;4224592;28;5692;-64
2022/12/30 17:33:45;;;;;;;;;;;;;;;13.18;66.51;97116.03;4227127;28;5609;-63
2022/12/30 17:35:48;;;;;;;;;;;;;;;13.17;66.54;97119.72;4221861;27;6384;-63
2022/12/30 17:37:51;;;;;;;;;;;;;;;13.19;66.81;97112.41;4226050;28;5609;-63
2022/12/30 17:39:54;;;;;;;;;;;;;;;13.18;66.48;97105.41;4226569;27;5676;-62
2022/12/30 17:41:56;;;;;;;;;;;;;;;13.18;66.53;97104.59;4221924;27;5796;-62
2022/12/30 17:43:59;;;;;;;;;;;;;;;13.17;66.73;97109.09;4218587;27;6575;-62
2022/12/30 17:46:02;;;;;;;;;;;;;;;13.16;66.67;97110.13;4230458;28;5692;-69
2022/12/30 17:48:06;;;;;;;;;;;;;;;13.17;66.84;97116.25;4224390;27;5732;-67
2022/12/30 17:50:11;;;;;;;;;;;;;;;13.18;66.86;97113.38;4229713;27;5664;-72
2022/12/30 17:52:14;;;;;;;;;;;;;;;13.21;66.86;97109.53;4224829;27;5680;-68
2022/12/30 17:54:17;;;;;;;;;;;;;;;13.20;66.98;97122.00;4231551;27;5688;-68
2022/12/30 17:56:21;;;;;;;;;;;;;;;13.20;66.91;97119.34;4231528;28;5689;-65
2022/12/30 17:58:24;;;;;;;;;;;;;;;13.20;66.80;97127.31;4224697;28;5792;-67
2022/12/30 18:00:27;;;;;;;;;;;;;;;13.21;67.01;97114.84;4229718;27;5770;-73
2022/12/30 18:02:30;;;;;;;;;;;;;;;13.24;66.80;97104.63;4228621;27;5673;-70
2022/12/30 18:04:35;;;;;;;;;;;;;;;13.25;66.71;97102.78;4231489;27;5609;-72
2022/12/30 18:06:37;;;;;;;;;;;;;;;13.24;66.84;97109.94;4217067;28;5620;-75
2022/12/30 18:08:40;;;;;;;;;;;;;;;13.24;66.78;97109.94;4216069;28;5641;-74
2022/12/30 18:10:44;;;;;;;;;;;;;;;13.24;66.83;97106.47;4217940;28;5739;-68
2022/12/30 18:12:47;;;;;;;;;;;;;;;13.26;66.86;97110.59;4227273;28;5606;-71
2022/12/30 18:14:50;;;;;;;;;;;;;;;13.26;66.90;97115.88;4232323;27;5733;-72
2022/12/30 18:16:52;;;;;;;;;;;;;;;13.25;66.78;97119.56;4226986;27;5609;-71
2022/12/30 18:19:01;;;;;;;;;;;;;;;13.27;66.81;97117.53;4225494;28;5586;-77
2022/12/30 18:21:08;;;;;;;;;;;;;;;13.29;66.72;97125.28;4232856;28;5688;-70
2022/12/30 18:23:11;;;;;;;;;;;;;;;13.28;66.99;97124.47;4216390;28;5221;-71
2022/12/30 18:25:14;;;;;;;;;;;;;;;13.29;67.05;97131.41;4226149;28;5672;-68
2022/12/30 18:27:17;;;;;;;;;;;;;;;13.30;67.07;97140.19;4230196;27;5919;-70
2022/12/30 18:29:23;;;;;;;;;;;;;;;13.30;67.05;97143.66;4230171;28;5755;-72
2022/12/30 18:31:29;;;;;;;;;;;;;;;13.32;67.00;97140.81;4232025;27;5685;-71
2022/12/30 18:33:32;;;;;;;;;;;;;;;13.32;66.73;97146.94;4231206;27;6288;-71
2022/12/30 18:35:36;;;;;;;;;;;;;;;13.32;66.71;97151.41;4219892;28;5767;-72
2022/12/30 18:37:40;;;;;;;;;;;;;;;13.32;67.00;97164.69;4218318;27;5835;-70
2022/12/30 18:39:43;;;;;;;;;;;;;;;13.33;67.03;97171.63;4223904;27;5609;-72
2022/12/30 18:41:46;;;;;;;;;;;;;;;13.33;67.10;97164.50;4224718;28;5751;-67
2022/12/30 18:43:49;;;;;;;;;;;;;;;13.33;66.91;97172.47;4234329;27;5826;-70
2022/12/30 18:45:52;;;;;;;;;;;;;;;13.30;67.00;97170.22;4228687;27;5602;-69
2022/12/30 18:47:55;;;;;;;;;;;;;;;13.32;66.82;97178.78;4224534;28;5560;-69
2022/12/30 18:49:58;;;;;;;;;;;;;;;13.32;66.99;97173.47;4221571;27;5650;-70
2022/12/30 18:52:01;;;;;;;;;;;;;;;13.32;67.12;97175.31;4227270;27;5776;-71
2022/12/30 18:54:07;;;;;;;;;;;;;;;13.34;67.16;97176.75;4227076;28;6917;-70
2022/12/30 18:56:12;;;;;;;;;;;;;;;13.34;67.14;97181.25;4216686;28;5617;-72
2022/12/30 18:58:14;;;;;;;;;;;;;;;13.33;66.97;97177.78;4229912;28;5598;-69
2022/12/30 19:00:17;;;;;;;;;;;;;;;13.31;66.92;97174.50;4228807;28;5606;-68
2022/12/30 19:02:20;;;;;;;;;;;;;;;13.30;67.27;97180.03;4226475;27;5715;-68
2022/12/30 19:04:23;;;;;;;;;;;;;;;13.32;67.35;97178.78;4223068;27;5704;-68
2022/12/30 19:06:27;;;;;;;;;;;;;;;13.33;67.21;97187.56;4231094;28;5724;-70
2022/12/30 19:08:37;;;;;;;;;;;;;;;13.35;67.40;97199.63;4229869;28;5684;-68
2022/12/30 19:10:41;;;;;;;;;;;;;;;13.36;67.05;97195.97;4231007;28;5704;-72
2022/12/30 19:12:44;;;;;;;;;;;;;;;13.38;67.25;97199.25;4226394;27;5663;-70
2022/12/30 19:14:47;;;;;;;;;;;;;;;13.38;67.11;97207.22;4218296;27;5936;-70
2022/12/30 19:16:51;;;;;;;;;;;;;;;13.39;67.35;97206.19;4226185;27;5764;-72
2022/12/30 19:18:57;;;;;;;;;;;;;;;13.40;67.10;97210.47;4228320;27;5920;-73
2022/12/30 19:21:02;;;;;;;;;;;;;;;13.42;67.38;97206.81;4224611;28;5620;-68
2022/12/30 19:23:05;;;;;;;;;;;;;;;13.42;67.42;97207.63;4223856;28;5712;-78
2022/12/30 19:25:08;;;;;;;;;;;;;;;13.43;67.28;97214.56;4226244;27;5680;-73
2022/12/30 19:27:12;;;;;;;;;;;;;;;13.44;67.16;97220.69;4224232;28;5628;-67
2022/12/30 19:29:15;;;;;;;;;;;;;;;13.44;67.38;97226.00;4227723;28;5701;-68
2022/12/30 19:31:20;;;;;;;;;;;;;;;13.44;67.33;97221.50;4227502;27;5610;-74
2022/12/30 19:33:23;;;;;;;;;;;;;;;13.43;67.35;97227.03;4224729;27;5723;-69
2022/12/30 19:35:26;;;;;;;;;;;;;;;13.42;67.05;97223.56;4228695;27;5757;-72
2022/12/30 19:37:29;;;;;;;;;;;;;;;13.42;67.47;97220.91;4224150;27;5712;-72
2022/12/30 19:39:31;;;;;;;;;;;;;;;13.43;67.11;97208.44;4236449;27;5747;-69
2022/12/30 19:41:36;;;;;;;;;;;;;;;13.42;67.35;97204.16;4228206;28;5720;-69
2022/12/30 19:43:41;;;;;;;;;;;;;;;13.42;67.38;97215.59;4210279;28;5620;-68